Time;durP1;ratioP1;P1;durP2;ratioP2;P2;SDS_P1;SDS_P2;PMS_P1;PMS_P2;Temp;Humidity;BMP_temperature;BMP_pressure;BME280_temperature;BME280_humidity;BME280_pressure;Samples;Min_cycle;Max_cycle;Signal;HPM_P1;HPM_P2
2022/03/13 00:00:59;;;;;;;3.10;2.87;;;11.20;99.90;;;;;;5077779;28;20189;-83
2022/03/13 00:03:28;;;;;;;3.17;2.97;;;11.20;99.90;;;;;;5077832;28;20201;-81
2022/03/13 00:05:58;;;;;;;3.27;3.07;;;11.20;99.90;;;;;;5077879;28;20186;-82
2022/03/13 00:08:28;;;;;;;2.90;2.70;;;11.20;99.90;;;;;;5077325;28;20205;-81
2022/03/13 00:10:57;;;;;;;3.07;2.67;;;11.10;99.90;;;;;;5078293;28;20233;-82
2022/03/13 00:13:30;;;;;;;2.53;2.33;;;11.10;99.90;;;;;;5077134;28;20229;-81
2022/03/13 00:15:58;;;;;;;2.70;2.50;;;11.10;99.90;;;;;;5076850;28;20233;-80
2022/03/13 00:18:25;;;;;;;3.30;3.00;;;11.00;99.90;;;;;;5076362;28;20198;-81
2022/03/13 00:20:53;;;;;;;2.90;2.67;;;11.00;99.90;;;;;;5076401;28;20216;-79
2022/03/13 00:23:20;;;;;;;3.30;3.00;;;11.10;99.90;;;;;;5075755;28;20206;-80
2022/03/13 00:25:49;;;;;;;3.27;3.07;;;11.10;99.90;;;;;;5076051;28;20259;-81
2022/03/13 00:28:16;;;;;;;2.60;2.50;;;11.10;99.90;;;;;;5076073;28;20206;-81
2022/03/13 00:30:45;;;;;;;3.00;2.80;;;11.10;99.90;;;;;;5058600;28;20205;-80
2022/03/13 00:33:12;;;;;;;3.00;2.80;;;11.00;99.90;;;;;;5076149;28;20229;-81
2022/03/13 00:35:40;;;;;;;2.77;2.57;;;11.00;99.90;;;;;;5076073;28;20225;-80
2022/03/13 00:38:08;;;;;;;3.30;3.10;;;11.00;99.90;;;;;;5076099;28;20202;-79
2022/03/13 00:40:37;;;;;;;3.53;3.33;;;11.00;99.90;;;;;;5075738;28;20205;-82
2022/03/13 00:43:07;;;;;;;3.40;3.10;;;11.10;99.90;;;;;;5075824;28;20194;-80
2022/03/13 00:45:35;;;;;;;3.33;3.13;;;11.10;99.90;;;;;;5076241;28;20205;-81
2022/03/13 00:48:04;;;;;;;4.13;3.20;;;11.10;99.90;;;;;;5063148;28;20680;-79
2022/03/13 00:50:31;;;;;;;3.37;3.07;;;11.00;99.90;;;;;;5056121;28;20210;-81
2022/03/13 00:52:58;;;;;;;3.27;2.97;;;11.00;99.90;;;;;;5055832;28;20205;-82
2022/03/13 00:55:25;;;;;;;3.10;2.90;;;11.00;99.90;;;;;;5055483;28;20210;-82
2022/03/13 00:57:52;;;;;;;3.30;3.07;;;11.10;99.90;;;;;;5055844;28;20202;-82
2022/03/13 01:00:20;;;;;;;4.10;3.20;;;11.00;99.90;;;;;;5055751;28;20289;-79
2022/03/13 01:02:49;;;;;;;3.07;2.87;;;11.10;99.90;;;;;;5055893;28;20213;-80
2022/03/13 01:05:22;;;;;;;4.15;3.83;;;11.00;99.90;;;;;;5054429;28;20421;-79
2022/03/13 01:07:51;;;;;;;3.30;3.10;;;11.10;99.90;;;;;;5055054;28;20653;-81
2022/03/13 01:10:18;;;;;;;3.93;3.60;;;11.10;99.90;;;;;;5054020;28;20221;-81
2022/03/13 01:12:48;;;;;;;3.37;3.17;;;11.10;99.90;;;;;;5055021;28;20223;-80
2022/03/13 01:15:16;;;;;;;3.43;3.07;;;11.10;99.90;;;;;;5055338;28;20206;-84
2022/03/13 01:17:43;;;;;;;3.93;3.43;;;11.10;99.90;;;;;;5054984;28;20202;-81
2022/03/13 01:20:19;;;;;;;3.83;3.47;;;11.20;99.90;;;;;;5055010;28;20669;-79
2022/03/13 01:22:46;;;;;;;3.40;3.10;;;11.20;99.90;;;;;;5055147;28;20214;-80
2022/03/13 01:25:16;;;;;;;4.13;3.83;;;11.20;99.90;;;;;;5054640;28;20642;-82
2022/03/13 01:27:44;;;;;;;4.60;4.20;;;11.10;99.90;;;;;;5054170;28;20499;-81
2022/03/13 01:30:13;;;;;;;3.70;3.40;;;11.20;99.90;;;;;;5054970;28;20202;-82
2022/03/13 01:32:41;;;;;;;3.67;3.37;;;11.20;99.90;;;;;;5059322;28;20198;-82
2022/03/13 01:35:09;;;;;;;3.83;3.40;;;11.30;99.90;;;;;;5059730;28;20195;-82
2022/03/13 01:37:40;;;;;;;3.67;3.37;;;11.30;99.90;;;;;;5061084;28;20230;-84
2022/03/13 01:40:11;;;;;;;3.97;3.40;;;11.20;99.90;;;;;;5060093;28;20266;-81
2022/03/13 01:42:41;;;;;;;3.57;3.30;;;11.10;99.90;;;;;;5060353;28;20190;-81
2022/03/13 01:45:12;;;;;;;3.90;3.50;;;11.10;99.90;;;;;;5056888;28;20209;-79
2022/03/13 01:47:39;;;;;;;3.80;3.60;;;11.10;99.90;;;;;;5054967;28;20667;-80
2022/03/13 01:50:09;;;;;;;3.77;3.50;;;11.00;99.90;;;;;;5055586;28;20191;-79
2022/03/13 01:52:40;;;;;;;4.30;3.90;;;10.90;99.90;;;;;;5055050;28;20207;-80
2022/03/13 01:55:09;;;;;;;4.30;3.90;;;11.00;99.90;;;;;;5054550;28;20210;-80
2022/03/13 01:57:37;;;;;;;4.83;3.80;;;11.00;99.90;;;;;;5054764;28;20285;-81
2022/03/13 02:00:11;;;;;;;3.80;3.50;;;11.00;99.90;;;;;;5054583;28;20186;-80
2022/03/13 02:02:44;;;;;;;4.10;3.80;;;10.90;99.90;;;;;;5055316;28;20191;-79
2022/03/13 02:05:26;;;;;;;4.40;4.00;;;11.00;99.90;;;;;;5054897;28;20198;-82
2022/03/13 02:07:55;;;;;;;4.60;4.20;;;11.00;99.90;;;;;;5054622;28;20198;-81
2022/03/13 02:10:23;;;;;;;4.07;3.77;;;10.90;99.90;;;;;;5054531;28;20199;-78
2022/03/13 02:12:50;;;;;;;4.97;4.33;;;10.80;99.90;;;;;;5054095;28;20218;-81
2022/03/13 02:15:18;;;;;;;5.40;5.00;;;10.90;99.90;;;;;;5054048;28;20919;-83
2022/03/13 02:17:46;;;;;;;4.90;4.40;;;10.90;99.90;;;;;;5054610;28;20275;-82
2022/03/13 02:20:21;;;;;;;4.30;3.90;;;10.80;99.90;;;;;;5054235;28;20207;-81
2022/03/13 02:22:53;;;;;;;4.73;4.43;;;10.90;99.90;;;;;;5054552;28;20206;-81
2022/03/13 02:25:23;;;;;;;4.83;4.43;;;10.90;99.90;;;;;;5054368;28;20195;-80
2022/03/13 02:27:50;;;;;;;4.33;4.03;;;10.90;99.90;;;;;;5054180;28;20214;-80
2022/03/13 02:30:22;;;;;;;5.13;4.73;;;10.90;99.90;;;;;;5054120;28;20199;-80
2022/03/13 02:32:49;;;;;;;4.77;4.20;;;10.90;99.90;;;;;;5054142;28;20579;-81
2022/03/13 02:35:19;;;;;;;4.67;4.27;;;10.80;99.90;;;;;;5054329;28;20199;-82
2022/03/13 02:37:48;;;;;;;4.87;4.30;;;10.80;99.90;;;;;;5054148;28;20276;-81
2022/03/13 02:40:19;;;;;;;4.73;4.33;;;10.80;99.90;;;;;;5054431;28;20195;-82
2022/03/13 02:42:46;;;;;;;4.60;4.20;;;10.70;99.90;;;;;;5053847;28;20194;-81
2022/03/13 02:45:28;;;;;;;4.90;4.50;;;10.70;99.90;;;;;;5054062;28;20198;-85
2022/03/13 02:47:55;;;;;;;4.50;4.10;;;10.70;99.90;;;;;;5053665;28;20206;-80
2022/03/13 02:50:24;;;;;;;5.03;4.63;;;10.80;99.90;;;;;;5053841;28;20567;-79
2022/03/13 02:52:50;;;;;;;5.10;4.70;;;10.80;99.90;;;;;;5054252;28;20201;-84
2022/03/13 02:55:19;;;;;;;5.07;4.67;;;10.70;99.90;;;;;;5054310;28;20222;-79
2022/03/13 02:57:47;;;;;;;5.97;4.60;;;10.70;99.90;;;;;;5054407;28;20234;-80
2022/03/13 03:00:17;;;;;;;6.37;5.10;;;10.70;99.90;;;;;;5053755;28;20249;-81
2022/03/13 03:02:44;;;;;;;6.35;5.75;;;10.70;99.90;;;;;;5053513;28;20436;-81
2022/03/13 03:05:12;;;;;;;5.33;4.93;;;10.70;99.90;;;;;;5053572;28;20209;-80
2022/03/13 03:07:41;;;;;;;5.90;5.40;;;10.70;99.90;;;;;;5053530;28;20206;-81
2022/03/13 03:10:13;;;;;;;5.80;5.27;;;10.60;99.90;;;;;;5053437;28;20190;-82
2022/03/13 03:12:42;;;;;;;6.03;5.43;;;10.60;99.90;;;;;;5053497;28;20222;-82
2022/03/13 03:15:09;;;;;;;6.17;5.37;;;10.60;99.90;;;;;;5053641;28;20574;-82
2022/03/13 03:17:36;;;;;;;5.47;4.97;;;10.50;99.90;;;;;;5053879;28;20222;-82
2022/03/13 03:20:05;;;;;;;5.17;4.77;;;10.40;99.90;;;;;;5053805;28;20202;-80
2022/03/13 03:22:33;;;;;;;6.13;5.53;;;10.50;99.90;;;;;;5053622;28;20649;-80
2022/03/13 03:25:00;;;;;;;5.20;4.80;;;10.40;99.90;;;;;;5053157;28;20553;-80
2022/03/13 03:27:30;;;;;;;5.97;5.47;;;10.40;99.90;;;;;;5053495;28;20200;-82
2022/03/13 03:30:00;;;;;;;6.47;5.37;;;10.40;99.90;;;;;;5054085;28;20187;-82
2022/03/13 03:32:29;;;;;;;6.30;5.77;;;10.40;99.90;;;;;;5054474;28;20538;-82
2022/03/13 03:34:56;;;;;;;6.10;5.57;;;10.40;99.90;;;;;;5057584;28;20202;-79
2022/03/13 03:37:25;;;;;;;5.67;5.17;;;10.50;99.90;;;;;;5057740;28;20226;-82
2022/03/13 03:39:53;;;;;;;5.80;5.30;;;10.50;99.90;;;;;;5056306;28;20315;-81
2022/03/13 03:42:22;;;;;;;7.87;6.20;;;10.50;99.90;;;;;;5058029;28;20657;-81
2022/03/13 03:44:48;;;;;;;6.37;5.87;;;10.50;99.90;;;;;;5061499;28;20206;-80
2022/03/13 03:47:17;;;;;;;6.20;5.70;;;10.50;99.90;;;;;;5057727;28;20633;-81
2022/03/13 03:49:44;;;;;;;6.57;5.93;;;10.50;99.90;;;;;;5056961;28;20741;-81
2022/03/13 03:52:11;;;;;;;6.00;5.50;;;10.50;99.90;;;;;;5056986;28;20206;-80
2022/03/13 03:54:38;;;;;;;6.63;6.00;;;10.60;99.90;;;;;;5057396;28;20654;-79
2022/03/13 03:57:05;;;;;;;6.00;5.50;;;10.70;99.90;;;;;;5057805;28;20226;-83
2022/03/13 03:59:32;;;;;;;6.37;5.77;;;10.60;99.90;;;;;;5057419;28;20216;-81
2022/03/13 04:02:00;;;;;;;6.50;5.93;;;10.70;99.90;;;;;;5056838;28;20703;-80
2022/03/13 04:04:29;;;;;;;5.90;5.40;;;10.70;99.90;;;;;;5056841;28;20555;-79
2022/03/13 04:06:57;;;;;;;5.90;5.30;;;10.80;99.90;;;;;;5056835;28;20220;-79
2022/03/13 04:09:25;;;;;;;6.20;5.63;;;10.80;99.90;;;;;;5056462;28;20889;-82
2022/03/13 04:11:53;;;;;;;6.20;5.63;;;10.70;99.90;;;;;;5056514;28;20274;-83
2022/03/13 04:14:21;;;;;;;6.43;5.87;;;10.70;99.90;;;;;;5062977;28;20569;-81
2022/03/13 04:16:52;;;;;;;6.10;5.50;;;10.70;99.90;;;;;;5076861;28;20218;-81
2022/03/13 04:19:21;;;;;;;5.90;5.37;;;10.70;99.90;;;;;;5076150;28;20607;-80
2022/03/13 04:21:49;;;;;;;6.70;5.30;;;10.60;99.90;;;;;;5076545;28;20190;-82
2022/03/13 04:24:17;;;;;;;5.67;5.20;;;10.50;99.90;;;;;;5076503;28;20213;-80
2022/03/13 04:26:45;;;;;;;5.60;5.17;;;10.60;99.90;;;;;;5077174;28;20208;-82
2022/03/13 04:29:12;;;;;;;5.97;5.47;;;10.60;99.90;;;;;;5076324;28;20206;-80
2022/03/13 04:31:40;;;;;;;5.60;5.10;;;10.70;99.90;;;;;;5076190;28;20657;-81
2022/03/13 04:34:08;;;;;;;5.50;5.10;;;10.60;99.90;;;;;;5076087;28;20202;-80
2022/03/13 04:36:37;;;;;;;6.00;5.50;;;10.60;99.90;;;;;;5076257;28;20675;-79
2022/03/13 04:39:06;;;;;;;6.88;6.28;;;10.50;99.90;;;;;;5075641;28;20439;-80
2022/03/13 04:41:34;;;;;;;6.07;5.47;;;10.50;99.90;;;;;;5076090;28;20194;-79
2022/03/13 04:44:01;;;;;;;6.33;5.73;;;10.40;99.90;;;;;;5076208;28;20190;-79
2022/03/13 04:46:30;;;;;;;6.17;5.60;;;10.40;99.90;;;;;;5076127;28;20197;-80
2022/03/13 04:48:58;;;;;;;6.87;6.27;;;10.40;99.90;;;;;;5076330;28;20637;-81
2022/03/13 04:51:26;;;;;;;6.53;5.93;;;10.30;99.90;;;;;;5076261;28;20214;-81
2022/03/13 04:53:52;;;;;;;6.90;6.20;;;10.30;99.90;;;;;;5075785;28;20586;-84
2022/03/13 04:56:21;;;;;;;6.27;5.77;;;10.30;99.90;;;;;;5076499;28;20208;-82
2022/03/13 04:58:49;;;;;;;6.63;5.47;;;10.30;99.90;;;;;;5076106;28;20236;-83
2022/03/13 05:01:19;;;;;;;6.20;5.60;;;10.20;99.90;;;;;;5075989;28;20307;-84
2022/03/13 05:03:52;;;;;;;6.63;6.07;;;10.20;99.90;;;;;;5075977;28;20186;-81
2022/03/13 05:06:19;;;;;;;6.20;5.60;;;10.10;99.90;;;;;;5075948;28;20197;-83
2022/03/13 05:08:49;;;;;;;6.23;5.73;;;10.10;99.90;;;;;;5075972;28;20206;-83
2022/03/13 05:11:17;;;;;;;6.40;5.77;;;10.00;99.90;;;;;;5075524;28;20224;-83
2022/03/13 05:13:46;;;;;;;5.87;5.30;;;10.00;99.90;;;;;;5075468;28;20225;-80
2022/03/13 05:16:13;;;;;;;6.77;6.13;;;10.00;99.90;;;;;;5075870;28;20209;-82
2022/03/13 05:18:41;;;;;;;6.43;5.83;;;10.00;99.90;;;;;;5075178;28;20240;-81
2022/03/13 05:21:09;;;;;;;6.17;5.67;;;10.00;99.90;;;;;;5075408;28;20201;-80
2022/03/13 05:23:36;;;;;;;6.10;5.53;;;10.10;99.90;;;;;;5075316;28;20202;-82
2022/03/13 05:26:02;;;;;;;6.87;6.17;;;10.10;99.90;;;;;;5075920;28;20288;-83
2022/03/13 05:28:30;;;;;;;7.55;6.95;;;10.10;99.90;;;;;;5074273;28;20420;-81
2022/03/13 05:30:58;;;;;;;7.90;6.93;;;10.10;99.90;;;;;;5075793;28;20209;-80
2022/03/13 05:33:25;;;;;;;6.87;6.27;;;10.10;99.90;;;;;;5075497;28;20202;-80
2022/03/13 05:35:52;;;;;;;7.20;6.27;;;10.00;99.90;;;;;;5075894;28;20202;-80
2022/03/13 05:38:24;;;;;;;7.33;6.20;;;10.00;99.90;;;;;;5075162;28;20606;-81
2022/03/13 05:40:54;;;;;;;7.23;6.53;;;10.00;99.90;;;;;;5075219;28;20198;-84
2022/03/13 05:43:22;;;;;;;9.00;7.13;;;9.90;99.90;;;;;;5075096;28;20252;-79
2022/03/13 05:45:50;;;;;;;8.60;6.20;;;10.00;99.90;;;;;;5074902;28;20209;-82
2022/03/13 05:48:20;;;;;;;8.60;6.70;;;10.10;99.90;;;;;;5075161;28;20190;-81
2022/03/13 05:50:47;;;;;;;8.27;7.47;;;10.00;99.90;;;;;;5074633;28;20435;-81
2022/03/13 05:53:15;;;;;;;7.40;6.70;;;10.00;99.90;;;;;;5074401;28;20193;-79
2022/03/13 05:55:42;;;;;;;8.13;7.33;;;10.00;99.90;;;;;;5073847;28;20229;-81
2022/03/13 05:58:10;;;;;;;9.33;7.93;;;10.20;99.90;;;;;;5074308;28;20711;-82
2022/03/13 06:00:39;;;;;;;9.60;7.30;;;10.10;99.90;;;;;;5073237;28;20208;-80
2022/03/13 06:03:06;;;;;;;7.83;7.13;;;10.10;99.90;;;;;;5069578;28;20216;-81
2022/03/13 06:05:37;;;;;;;9.70;7.30;;;10.10;99.90;;;;;;5073207;28;20206;-81
2022/03/13 06:08:04;;;;;;;8.50;7.20;;;10.10;99.90;;;;;;5074377;28;20202;-82
2022/03/13 06:10:31;;;;;;;8.53;7.73;;;10.20;99.90;;;;;;5074499;28;20213;-84
2022/03/13 06:12:58;;;;;;;8.73;7.80;;;10.20;99.90;;;;;;5074376;28;20225;-81
2022/03/13 06:15:28;;;;;;;10.38;8.45;;;10.20;99.90;;;;;;5073531;28;20437;-80
2022/03/13 06:17:57;;;;;;;10.07;9.07;;;10.10;99.90;;;;;;5073875;28;20222;-82
2022/03/13 06:20:25;;;;;;;8.87;8.03;;;10.20;99.90;;;;;;5074280;28;20194;-84
2022/03/13 06:22:54;;;;;;;10.27;8.70;;;10.20;99.90;;;;;;5074055;28;20186;-84
2022/03/13 06:25:21;;;;;;;11.17;9.37;;;10.10;99.90;;;;;;5073783;28;20206;-83
2022/03/13 06:27:48;;;;;;;9.90;8.90;;;10.00;99.90;;;;;;5073824;28;20212;-82
2022/03/13 06:30:16;;;;;;;11.33;9.43;;;10.10;99.90;;;;;;5073487;28;20672;-82
2022/03/13 06:32:44;;;;;;;11.37;9.77;;;10.20;99.90;;;;;;5074068;28;20277;-82
2022/03/13 06:35:13;;;;;;;11.43;10.23;;;10.20;99.90;;;;;;5073714;28;20205;-83
2022/03/13 06:37:41;;;;;;;10.77;9.70;;;10.10;99.90;;;;;;5073712;28;20263;-80
2022/03/13 06:40:13;;;;;;;12.23;10.98;;;10.10;99.90;;;;;;5073598;28;20439;-81
2022/03/13 06:42:41;;;;;;;10.77;9.67;;;10.00;99.90;;;;;;5073563;28;20202;-81
2022/03/13 06:45:10;;;;;;;12.47;10.60;;;10.00;99.90;;;;;;5073162;28;20198;-80
2022/03/13 06:47:37;;;;;;;11.13;10.03;;;10.10;99.90;;;;;;5073635;28;20240;-82
2022/03/13 06:50:06;;;;;;;12.47;11.10;;;10.00;99.90;;;;;;5073653;28;20196;-81
2022/03/13 06:52:36;;;;;;;12.90;11.43;;;10.00;99.90;;;;;;5073417;28;20213;-80
2022/03/13 06:55:04;;;;;;;12.63;11.03;;;10.10;99.90;;;;;;5068626;28;20203;-82
2022/03/13 06:57:32;;;;;;;12.90;11.50;;;9.90;99.90;;;;;;5073422;28;20696;-80
2022/03/13 07:00:00;;;;;;;13.53;11.23;;;10.00;99.90;;;;;;5070323;28;20229;-81
2022/03/13 07:02:28;;;;;;;12.73;11.33;;;9.90;99.90;;;;;;5073480;28;20224;-82
2022/03/13 07:04:56;;;;;;;14.02;12.48;;;9.90;99.90;;;;;;5072894;28;20761;-81
2022/03/13 07:07:24;;;;;;;13.60;12.00;;;10.00;99.90;;;;;;5072527;28;20201;-82
2022/03/13 07:09:51;;;;;;;13.90;12.00;;;10.00;99.90;;;;;;5072943;28;20204;-83
2022/03/13 07:12:24;;;;;;;13.03;10.83;;;10.00;99.90;;;;;;5071095;28;20218;-81
2022/03/13 07:14:57;;;;;;;12.23;10.93;;;10.10;99.90;;;;;;5054925;28;20534;-87
2022/03/13 07:17:25;;;;;;;12.60;11.30;;;10.10;99.90;;;;;;5053540;28;20678;-83
2022/03/13 07:19:57;;;;;;;13.77;12.27;;;10.20;99.90;;;;;;5053475;28;20252;-82
2022/03/13 07:22:25;;;;;;;13.43;11.70;;;10.30;99.90;;;;;;5053272;28;20209;-82
2022/03/13 07:24:52;;;;;;;15.63;14.07;;;10.30;99.90;;;;;;5052535;28;20440;-81
2022/03/13 07:27:19;;;;;;;14.30;12.27;;;10.50;99.90;;;;;;5052862;28;20214;-80
2022/03/13 07:29:48;;;;;;;13.60;12.13;;;10.50;99.90;;;;;;5064243;28;20194;-80
2022/03/13 07:32:16;;;;;;;14.13;11.57;;;10.60;99.90;;;;;;5072436;28;20190;-79
2022/03/13 07:34:44;;;;;;;13.93;11.30;;;10.60;99.90;;;;;;5072635;28;20208;-82
2022/03/13 07:37:12;;;;;;;11.90;10.70;;;10.70;99.90;;;;;;5072902;28;20201;-84
2022/03/13 07:39:41;;;;;;;13.73;11.73;;;10.80;99.90;;;;;;5073810;28;20217;-90
2022/03/13 07:42:12;;;;;;;13.87;10.87;;;10.80;99.90;;;;;;5073382;28;20285;-82
2022/03/13 07:44:40;;;;;;;14.90;13.38;;;10.80;99.90;;;;;;5072044;28;20834;-83
2022/03/13 07:47:07;;;;;;;13.27;11.67;;;11.00;99.90;;;;;;5072978;28;20209;-83
2022/03/13 07:49:35;;;;;;;12.80;11.43;;;11.00;99.90;;;;;;5072993;28;20579;-82
2022/03/13 07:52:06;;;;;;;12.60;11.10;;;11.00;99.90;;;;;;5072682;28;20197;-84
2022/03/13 07:54:34;;;;;;;12.90;11.13;;;11.10;99.90;;;;;;5072662;28;20645;-82
2022/03/13 07:57:01;;;;;;;13.27;10.30;;;11.10;99.90;;;;;;5072870;28;20209;-84
2022/03/13 07:59:29;;;;;;;12.77;10.50;;;11.20;99.90;;;;;;5073027;28;20252;-83
2022/03/13 08:01:57;;;;;;;12.47;10.50;;;11.30;99.90;;;;;;5072989;28;20197;-83
2022/03/13 08:04:24;;;;;;;13.07;11.77;;;11.40;99.90;;;;;;5072235;28;20440;-83
2022/03/13 08:06:52;;;;;;;11.23;10.13;;;11.60;99.90;;;;;;5059557;28;20198;-82
2022/03/13 08:09:21;;;;;;;13.77;10.53;;;11.60;99.90;;;;;;5083906;28;20198;-82
2022/03/13 08:11:48;;;;;;;11.53;9.80;;;11.50;99.90;;;;;;5078930;28;20214;-84
2022/03/13 08:14:17;;;;;;;10.50;9.40;;;11.50;99.90;;;;;;5072542;28;20201;-88
2022/03/13 08:16:45;;;;;;;12.43;9.27;;;11.60;99.90;;;;;;5070054;28;20217;-82
2022/03/13 08:19:14;;;;;;;9.20;8.30;;;11.60;99.90;;;;;;5054783;28;20234;-83
2022/03/13 08:21:42;;;;;;;9.97;8.97;;;11.60;99.90;;;;;;5068999;28;20633;-82
2022/03/13 08:24:14;;;;;;;10.67;9.63;;;11.70;99.90;;;;;;5076177;28;20259;-82
2022/03/13 08:26:44;;;;;;;10.40;8.87;;;11.80;99.90;;;;;;5076203;28;20225;-82
2022/03/13 08:29:12;;;;;;;12.07;8.83;;;11.90;99.90;;;;;;5076072;28;20205;-81
2022/03/13 08:31:39;;;;;;;11.13;9.03;;;11.90;99.90;;;;;;5076131;28;20229;-83
2022/03/13 08:34:08;;;;;;;10.10;8.93;;;11.90;99.90;;;;;;5076423;28;20194;-82
2022/03/13 08:36:36;;;;;;;10.47;8.50;;;12.00;99.90;;;;;;5076151;28;20210;-82
2022/03/13 08:39:04;;;;;;;10.37;8.40;;;12.10;99.90;;;;;;5075573;28;20222;-82
2022/03/13 08:41:33;;;;;;;10.13;7.83;;;12.20;99.90;;;;;;5072555;28;20206;-81
2022/03/13 08:44:03;;;;;;;8.90;8.10;;;12.30;99.90;;;;;;5075802;28;20212;-80
2022/03/13 08:46:33;;;;;;;9.40;8.50;;;12.40;99.90;;;;;;5076007;28;20216;-85
2022/03/13 08:49:00;;;;;;;8.87;7.50;;;12.50;99.90;;;;;;5076477;28;20206;-85
2022/03/13 08:51:29;;;;;;;10.13;7.57;;;12.50;99.90;;;;;;5076393;28;20683;-87
2022/03/13 08:53:57;;;;;;;9.80;7.33;;;12.60;99.90;;;;;;5075278;28;20210;-80
2022/03/13 08:56:24;;;;;;;8.00;7.30;;;12.60;99.90;;;;;;5075874;28;20214;-81
2022/03/13 08:58:53;;;;;;;8.10;7.30;;;12.50;99.90;;;;;;5074525;28;20222;-81
2022/03/13 09:01:24;;;;;;;7.53;6.80;;;12.60;99.90;;;;;;5075192;28;20190;-80
2022/03/13 09:03:53;;;;;;;7.47;6.70;;;12.50;99.90;;;;;;5075520;28;20300;-90
2022/03/13 09:06:20;;;;;;;7.23;6.53;;;12.50;99.90;;;;;;5076292;28;20200;-84
2022/03/13 09:08:50;;;;;;;7.40;6.70;;;12.60;99.90;;;;;;5074950;28;20202;-84
2022/03/13 09:11:18;;;;;;;8.07;7.27;;;12.70;99.90;;;;;;5076846;28;20499;-91
2022/03/13 09:13:44;;;;;;;7.57;6.87;;;12.80;99.90;;;;;;5078329;28;20188;-88
2022/03/13 09:16:13;;;;;;;8.47;6.77;;;12.90;99.90;;;;;;5079365;28;20213;-90
2022/03/13 09:18:40;;;;;;;6.77;6.17;;;12.90;99.90;;;;;;5077747;28;20250;-90
2022/03/13 09:21:08;;;;;;;6.87;6.30;;;12.90;99.90;;;;;;5077870;28;20201;-88
2022/03/13 09:23:36;;;;;;;6.90;6.20;;;12.90;99.90;;;;;;5077913;28;20222;-92
2022/03/13 09:26:03;;;;;;;6.40;5.80;;;12.90;99.90;;;;;;5078852;28;20203;-92
2022/03/13 09:28:31;;;;;;;6.37;5.77;;;13.00;99.90;;;;;;5075472;28;20210;-83
2022/03/13 09:31:13;;;;;;;5.77;5.27;;;13.10;99.90;;;;;;5079126;28;20191;-89
2022/03/13 09:33:43;;;;;;;6.07;5.57;;;13.00;99.90;;;;;;5062314;28;20247;-92
2022/03/13 09:36:13;;;;;;;6.43;5.93;;;13.00;99.90;;;;;;5060652;28;20250;-91
2022/03/13 09:38:40;;;;;;;6.47;5.87;;;13.10;99.90;;;;;;5060853;28;20229;-91
2022/03/13 09:41:08;;;;;;;6.27;5.67;;;13.20;99.90;;;;;;5079933;28;20223;-91
2022/03/13 09:43:41;;;;;;;5.13;4.63;;;13.10;99.90;;;;;;5078884;28;20246;-90
2022/03/13 09:46:08;;;;;;;6.13;5.53;;;13.10;99.90;;;;;;5078275;28;20238;-92
2022/03/13 09:48:37;;;;;;;6.87;5.33;;;13.20;99.90;;;;;;5079056;28;20208;-90
2022/03/13 09:51:06;;;;;;;5.33;4.93;;;13.30;99.90;;;;;;5079035;28;20683;-89
2022/03/13 09:56:15;;;;;;;4.70;4.30;;;13.60;99.90;;;;;;5080057;28;20713;-90
2022/03/13 09:58:44;;;;;;;5.20;4.70;;;13.80;99.90;;;;;;5077861;28;20299;-91
2022/03/13 10:01:11;;;;;;;5.60;5.10;;;13.90;99.90;;;;;;5058505;28;20288;-91
2022/03/13 10:03:40;;;;;;;4.37;3.97;;;13.90;99.90;;;;;;5076012;28;20555;-89
2022/03/13 10:06:07;;;;;;;4.93;4.50;;;13.90;99.90;;;;;;5075697;28;20228;-89
2022/03/13 10:08:34;;;;;;;4.50;4.10;;;14.00;99.90;;;;;;5076118;28;20209;-89
2022/03/13 10:11:02;;;;;;;4.67;4.27;;;14.00;99.90;;;;;;5077031;28;20279;-88
2022/03/13 10:13:40;;;;;;;6.57;4.30;;;14.00;99.90;;;;;;5076992;28;20251;-88
2022/03/13 10:16:08;;;;;;;4.33;3.67;;;14.00;99.90;;;;;;5076398;28;20690;-89
2022/03/13 10:18:36;;;;;;;4.03;3.73;;;14.00;99.90;;;;;;5075918;28;20224;-89
2022/03/13 10:21:09;;;;;;;4.43;4.03;;;14.00;99.90;;;;;;5075332;28;20208;-90
2022/03/13 10:23:37;;;;;;;4.67;4.27;;;14.00;99.90;;;;;;5075658;28;20653;-87
2022/03/13 10:26:05;;;;;;;4.47;4.17;;;13.90;99.90;;;;;;5057629;28;20213;-80
2022/03/13 10:28:33;;;;;;;4.67;4.27;;;14.00;99.90;;;;;;5073715;28;20303;-81
2022/03/13 10:31:11;;;;;;;4.60;4.20;;;14.30;99.90;;;;;;5073650;28;20725;-80
2022/03/13 10:33:58;;;;;;;5.40;4.50;;;14.40;99.90;;;;;;5074154;28;20216;-79
2022/03/13 10:36:34;;;;;;;3.83;3.53;;;14.60;99.90;;;;;;5073451;28;20210;-80
2022/03/13 10:39:03;;;;;;;3.90;3.50;;;14.70;99.90;;;;;;5073999;28;20237;-80
2022/03/13 10:41:44;;;;;;;4.77;4.30;;;14.80;99.90;;;;;;5073523;28;20517;-81
2022/03/13 10:44:16;;;;;;;3.73;3.43;;;14.90;99.90;;;;;;5074685;28;20238;-80
2022/03/13 10:46:44;;;;;;;3.30;3.10;;;14.70;99.90;;;;;;5073790;28;20213;-80
2022/03/13 10:49:13;;;;;;;3.70;3.40;;;14.70;99.90;;;;;;5074415;28;20245;-79
2022/03/13 10:51:45;;;;;;;3.20;3.00;;;14.80;99.90;;;;;;5073486;28;20202;-80
2022/03/13 10:54:28;;;;;;;3.73;3.47;;;14.90;99.90;;;;;;5074362;28;20216;-80
2022/03/13 10:57:09;;;;;;;3.63;3.40;;;15.00;99.90;;;;;;5073588;28;20209;-80
2022/03/13 10:59:36;;;;;;;3.83;3.53;;;14.90;99.90;;;;;;5075008;28;20228;-80
2022/03/13 11:02:13;;;;;;;3.63;3.33;;;15.00;99.90;;;;;;5073942;28;20190;-79
2022/03/13 11:04:50;;;;;;;3.90;3.60;;;15.00;99.90;;;;;;5082684;28;20198;-80
2022/03/13 11:07:20;;;;;;;4.60;3.60;;;15.10;99.90;;;;;;5085558;28;20453;-80
2022/03/13 11:09:48;;;;;;;3.73;3.43;;;15.20;99.90;;;;;;5084570;28;20224;-81
2022/03/13 11:12:19;;;;;;;3.77;3.47;;;15.20;99.90;;;;;;5064730;28;20216;-81
2022/03/13 11:14:49;;;;;;;3.50;3.20;;;15.30;99.90;;;;;;5083681;28;20564;-83
2022/03/13 11:17:17;;;;;;;4.47;3.37;;;15.40;99.90;;;;;;5074568;28;20191;-80
2022/03/13 11:19:46;;;;;;;3.57;3.30;;;15.50;99.90;;;;;;5075678;28;20264;-79
2022/03/13 11:22:13;;;;;;;3.77;3.47;;;15.30;99.90;;;;;;5073991;28;20556;-81
2022/03/13 11:24:43;;;;;;;3.53;3.07;;;15.30;99.90;;;;;;5073761;28;20212;-82
2022/03/13 11:27:11;;;;;;;3.77;3.47;;;15.40;99.90;;;;;;5073129;28;20206;-81
2022/03/13 11:29:42;;;;;;;3.77;3.47;;;15.40;99.90;;;;;;5075182;28;20271;-81
2022/03/13 11:32:35;;;;;;;3.83;3.60;;;15.60;99.90;;;;;;5075528;28;20228;-80
2022/03/13 11:35:35;;;;;;;3.87;3.30;;;15.40;99.90;;;;;;5075032;28;20217;-80
2022/03/13 11:38:20;;;;;;;2.80;2.60;;;15.50;99.90;;;;;;5074976;28;20273;-80
2022/03/13 11:40:50;;;;;;;3.77;3.47;;;15.60;99.90;;;;;;5076879;28;20240;-80
2022/03/13 11:43:19;;;;;;;4.03;3.50;;;15.50;99.90;;;;;;5077418;28;20209;-81
2022/03/13 11:45:51;;;;;;;3.87;3.57;;;15.50;99.90;;;;;;5073663;28;20187;-80
2022/03/13 11:48:45;;;;;;;4.00;3.60;;;15.50;99.90;;;;;;5073067;28;20206;-81
2022/03/13 11:51:30;;;;;;;3.57;3.37;;;15.50;99.90;;;;;;5076053;28;20202;-81
2022/03/13 11:54:03;;;;;;;4.15;3.83;;;15.50;99.90;;;;;;5074444;28;20430;-80
2022/03/13 11:56:50;;;;;;;3.93;3.40;;;15.70;99.90;;;;;;5077442;28;20612;-90
2022/03/13 11:59:19;;;;;;;3.60;3.30;;;15.80;99.90;;;;;;5077120;28;20234;-81
2022/03/13 12:01:48;;;;;;;3.60;3.30;;;15.80;99.90;;;;;;5077810;28;20233;-82
2022/03/13 12:04:32;;;;;;;3.77;3.57;;;15.80;99.90;;;;;;5077996;28;20201;-81
2022/03/13 12:07:01;;;;;;;4.17;3.87;;;15.70;99.90;;;;;;5080280;28;20749;-81
2022/03/13 12:09:43;;;;;;;3.90;3.60;;;15.90;99.90;;;;;;5081467;28;20206;-80
2022/03/13 12:12:15;;;;;;;3.93;3.63;;;15.80;99.90;;;;;;5080200;28;20599;-81
2022/03/13 12:15:05;;;;;;;4.30;3.90;;;15.80;99.90;;;;;;5085183;28;20202;-83
2022/03/13 12:17:45;;;;;;;4.53;4.13;;;15.70;99.90;;;;;;5084997;28;20589;-82
2022/03/13 12:20:26;;;;;;;5.83;3.53;;;15.60;99.90;;;;;;5078936;28;20600;-82
2022/03/13 12:23:05;;;;;;;3.87;3.60;;;15.60;99.90;;;;;;5065583;28;20577;-82
2022/03/13 12:25:32;;;;;;;4.30;4.00;;;15.70;99.90;;;;;;5080988;28;20654;-81
2022/03/13 12:28:01;;;;;;;4.40;4.00;;;15.80;99.90;;;;;;5069171;28;20543;-90
2022/03/13 12:30:31;;;;;;;4.53;4.03;;;16.00;99.90;;;;;;5071871;28;20202;-83
2022/03/13 12:32:59;;;;;;;3.83;3.63;;;16.20;99.90;;;;;;5055971;28;20231;-83
2022/03/13 12:35:29;;;;;;;3.77;3.47;;;16.20;99.90;;;;;;5073143;28;20196;-81
2022/03/13 12:37:57;;;;;;;3.90;3.60;;;16.10;99.90;;;;;;5074343;28;20574;-84
2022/03/13 12:40:25;;;;;;;4.10;3.70;;;16.20;99.90;;;;;;5076182;28;20257;-84
2022/03/13 12:42:56;;;;;;;4.57;4.18;;;16.40;99.90;;;;;;5076039;28;20482;-81
2022/03/13 12:45:27;;;;;;;4.37;4.07;;;16.40;99.90;;;;;;5076291;28;20198;-83
2022/03/13 12:48:00;;;;;;;3.80;3.60;;;16.50;99.90;;;;;;5075784;28;20220;-86
2022/03/13 12:50:29;;;;;;;4.10;3.70;;;16.50;99.90;;;;;;5075939;28;20563;-81
2022/03/13 12:52:58;;;;;;;3.87;3.57;;;16.60;99.90;;;;;;5075583;28;20202;-82
2022/03/13 12:55:26;;;;;;;3.70;3.40;;;16.60;99.90;;;;;;5075824;28;20254;-86
2022/03/13 12:57:57;;;;;;;3.53;3.33;;;16.50;99.90;;;;;;5075667;28;20198;-82